createdAt,value
2022-08-08T00:06:06.735Z,7.03
2022-08-08T00:16:13.827Z,6.05
2022-08-08T00:26:29.829Z,6.82
2022-08-08T00:36:42.849Z,6.78
2022-08-08T00:47:14.117Z,6.75
2022-08-08T00:58:01.896Z,7.25
2022-08-08T01:08:46.629Z,6.75
2022-08-08T01:19:51.919Z,6.60
2022-08-08T01:30:26.530Z,6.97
2022-08-08T01:40:38.112Z,6.95
2022-08-08T01:51:02.807Z,7.22
2022-08-08T02:01:20.431Z,7.32
2022-08-08T02:11:52.789Z,7.10
2022-08-08T02:22:28.393Z,7.45
2022-08-08T02:32:53.291Z,8.65
2022-08-08T02:44:42.403Z,7.60
2022-08-08T02:54:36.169Z,8.23
2022-08-08T03:05:13.770Z,7.97
2022-08-08T03:15:59.074Z,7.45
2022-08-08T03:26:09.253Z,7.78
2022-08-08T03:36:19.533Z,7.97
2022-08-08T03:46:25.274Z,7.47
2022-08-08T03:56:33.803Z,7.18
2022-08-08T04:06:40.940Z,8.02
2022-08-08T04:16:44.216Z,7.50
2022-08-08T04:26:57.478Z,8.27
2022-08-08T04:37:03.950Z,8.02
2022-08-08T04:47:11.842Z,8.15
2022-08-08T04:57:15.615Z,8.75
2022-08-08T05:07:20.398Z,6.97
2022-08-08T05:17:23.473Z,7.32
2022-08-08T05:27:27.876Z,8.48
2022-08-08T05:37:52.243Z,7.60
2022-08-08T05:48:00.377Z,8.65
2022-08-08T05:58:17.707Z,8.18
2022-08-08T06:08:33.115Z,8.30
2022-08-08T06:18:40.199Z,8.25
2022-08-08T06:28:50.367Z,7.75
2022-08-08T06:39:00.032Z,6.20
2022-08-08T06:49:05.776Z,7.22
2022-08-08T06:59:13.949Z,5.28
2022-08-08T07:09:21.604Z,4.60
2022-08-08T07:19:37.209Z,4.05
2022-08-08T07:30:00.956Z,4.70
2022-08-08T07:40:06.528Z,4.47
2022-08-08T07:50:14.457Z,5.03
2022-08-08T08:00:31.081Z,5.07
2022-08-08T08:10:38.388Z,4.78
2022-08-08T08:20:42.943Z,5.20
2022-08-08T08:30:47.383Z,4.63
2022-08-08T08:40:51.561Z,5.05
2022-08-08T08:50:56.895Z,5.82
2022-08-08T09:01:08.360Z,9.15
2022-08-08T09:11:17.236Z,4.45
2022-08-08T09:22:02.628Z,14.45
2022-08-08T09:31:56.862Z,4.13
2022-08-08T09:42:20.226Z,3.92
2022-08-08T09:52:58.416Z,4.85
2022-08-08T10:02:58.159Z,7.07
2022-08-08T10:13:17.488Z,4.75
2022-08-08T10:23:43.295Z,3.88
2022-08-08T10:34:18.181Z,3.95
2022-08-08T10:44:25.320Z,3.38
2022-08-08T10:54:31.808Z,3.72
2022-08-08T11:04:53.281Z,2.90
2022-08-08T11:15:01.363Z,3.38
2022-08-08T11:25:13.688Z,3.90
2022-08-08T11:35:27.091Z,3.20
2022-08-08T11:46:06.955Z,3.47
2022-08-08T11:56:07.787Z,3.55
2022-08-08T12:06:15.645Z,2.90
2022-08-08T12:16:30.246Z,4.78
2022-08-08T12:26:41.627Z,3.70
2022-08-08T12:36:49.209Z,5.28
2022-08-08T12:47:00.168Z,5.10
2022-08-08T12:57:17.920Z,3.88
2022-08-08T13:08:03.443Z,3.70
2022-08-08T13:18:09.970Z,3.22
2022-08-08T13:28:09.028Z,3.38
2022-08-08T13:38:14.323Z,4.90
2022-08-08T13:48:19.610Z,2.50
2022-08-08T13:58:30.456Z,2.88
2022-08-08T14:08:34.977Z,1.83
2022-08-08T14:18:53.301Z,1.73
2022-08-08T14:28:58.887Z,2.22
2022-08-08T14:39:11.801Z,3.30
2022-08-08T14:49:20.137Z,2.75
2022-08-08T14:59:43.630Z,2.33
2022-08-08T15:09:48.035Z,1.83
2022-08-08T15:19:52.718Z,2.53
2022-08-08T15:29:57.411Z,1.83
2022-08-08T15:40:02.899Z,2.85
2022-08-08T15:50:16.783Z,4.68
2022-08-08T16:00:26.997Z,2.55
2022-08-08T16:13:03.133Z,2.00
2022-08-08T16:21:00.446Z,2.78
2022-08-08T16:31:07.552Z,1.85
2022-08-08T16:41:18.680Z,3.10
2022-08-08T16:55:06.670Z,2.90
2022-08-08T17:01:48.620Z,3.90
2022-08-08T17:11:59.267Z,2.58
2022-08-08T17:22:06.115Z,3.25
2022-08-08T17:32:10.477Z,2.22
2022-08-08T17:42:14.977Z,3.25
2022-08-08T17:52:18.124Z,3.05
2022-08-08T18:02:28.627Z,1.80
2022-08-08T18:12:32.924Z,2.03
2022-08-08T18:22:51.094Z,2.60
2022-08-08T18:32:54.553Z,2.75
2022-08-08T18:43:00.599Z,2.33
2022-08-08T18:53:04.129Z,2.13
2022-08-08T19:03:08.836Z,3.50
2022-08-08T19:13:21.455Z,2.08
2022-08-08T19:23:26.312Z,4.03
2022-08-08T19:33:51.790Z,2.15
2022-08-08T19:44:03.603Z,2.05
2022-08-08T19:54:07.354Z,2.53
2022-08-08T20:04:12.428Z,3.13
2022-08-08T20:14:32.885Z,2.50
2022-08-08T20:24:39.566Z,3.65
2022-08-08T20:34:47.582Z,2.80
2022-08-08T20:44:52.901Z,2.30
2022-08-08T20:54:56.574Z,5.63
2022-08-08T21:05:01.812Z,3.13
2022-08-08T21:15:06.679Z,4.47
2022-08-08T21:25:13.737Z,4.45
2022-08-08T21:36:19.184Z,4.50
2022-08-08T21:48:07.242Z,2.95
2022-08-08T21:56:29.468Z,3.40
2022-08-08T22:06:32.314Z,3.10
2022-08-08T22:16:36.040Z,2.60
2022-08-08T22:27:01.796Z,3.67
2022-08-08T22:37:04.053Z,3.45
2022-08-08T22:47:18.252Z,6.50
2022-08-08T22:57:21.478Z,3.42
2022-08-08T23:07:51.043Z,2.88
2022-08-08T23:17:54.442Z,3.22
2022-08-08T23:28:03.615Z,3.10
2022-08-08T23:38:07.367Z,3.08
2022-08-08T23:49:04.182Z,3.65
2022-08-08T23:58:38.432Z,3.20
